createdAt,value
2018-08-28T00:01:48.659Z,65.22
2018-08-28T00:04:17.181Z,65.10
2018-08-28T00:06:45.671Z,65.09
2018-08-28T00:09:14.279Z,64.83
2018-08-28T00:11:42.674Z,65.30
2018-08-28T00:14:11.051Z,65.06
2018-08-28T00:16:39.403Z,65.61
2018-08-28T00:19:07.873Z,65.31
2018-08-28T00:21:36.319Z,65.39
2018-08-28T00:24:04.729Z,65.52
2018-08-28T00:26:33.237Z,65.32
2018-08-28T00:29:01.734Z,65.78
2018-08-28T00:31:30.141Z,65.79
2018-08-28T00:33:58.538Z,65.82
2018-08-28T00:36:26.959Z,65.57
2018-08-28T00:38:55.373Z,65.47
2018-08-28T00:41:23.735Z,65.53
2018-08-28T00:43:52.133Z,65.65
2018-08-28T00:46:20.592Z,65.70
2018-08-28T00:48:49.159Z,66.13
2018-08-28T00:51:17.563Z,65.65
2018-08-28T00:53:46.025Z,66.47
2018-08-28T00:56:14.401Z,65.94
2018-08-28T00:58:42.925Z,66.39
2018-08-28T01:01:11.287Z,66.53
2018-08-28T01:03:39.736Z,66.33
2018-08-28T01:06:08.248Z,66.51
2018-08-28T01:08:36.835Z,66.87
2018-08-28T01:11:05.559Z,66.88
2018-08-28T01:13:33.967Z,66.72
2018-08-28T01:16:02.985Z,66.61
2018-08-28T01:18:31.547Z,66.47
2018-08-28T01:21:01.072Z,67.02
2018-08-28T01:23:29.663Z,66.76
2018-08-28T01:25:58.597Z,66.63
2018-08-28T01:28:27.521Z,66.75
2018-08-28T01:30:56.189Z,67.19
2018-08-28T01:33:24.841Z,67.13
2018-08-28T01:35:53.621Z,67.18
2018-08-28T01:38:22.303Z,67.12
2018-08-28T01:40:50.930Z,67.46
2018-08-28T01:43:24.657Z,67.16
2018-08-28T01:45:54.886Z,66.88
2018-08-28T01:48:23.681Z,66.83
2018-08-28T01:50:52.544Z,67.49
2018-08-28T01:53:21.381Z,68.00
2018-08-28T01:55:50.338Z,67.33
2018-08-28T01:58:19.235Z,67.95
2018-08-28T02:00:48.078Z,67.35
2018-08-28T02:03:17.409Z,68.49
2018-08-28T02:05:46.287Z,68.81
2018-08-28T02:08:15.707Z,68.69
2018-08-28T02:10:46.054Z,68.16
2018-08-28T02:13:14.810Z,68.22
2018-08-28T02:15:43.497Z,68.18
2018-08-28T02:18:12.346Z,68.46
2018-08-28T02:20:41.384Z,67.96
2018-08-28T02:23:10.133Z,68.19
2018-08-28T02:25:39.006Z,67.75
2018-08-28T02:28:07.808Z,68.26
2018-08-28T02:33:17.937Z,68.77
2018-08-28T02:35:48.247Z,69.21
2018-08-28T02:38:17.345Z,69.00
2018-08-28T02:40:46.389Z,69.56
2018-08-28T02:43:15.195Z,69.50
2018-08-28T02:45:43.865Z,69.88
2018-08-28T02:48:13.767Z,69.36
2018-08-28T02:50:42.693Z,68.91
2018-08-28T02:53:11.478Z,69.36
2018-08-28T02:55:40.247Z,69.22
2018-08-28T02:58:09.112Z,69.17
2018-08-28T03:00:37.923Z,68.82
2018-08-28T03:03:06.761Z,68.78
2018-08-28T03:05:36.083Z,68.87
2018-08-28T03:08:04.808Z,69.49
2018-08-28T03:10:34.991Z,69.27
2018-08-28T03:13:03.677Z,69.00
2018-08-28T03:15:32.284Z,68.36
2018-08-28T03:18:00.967Z,68.35
2018-08-28T03:20:29.601Z,67.96
2018-08-28T03:22:58.293Z,67.84
2018-08-28T03:25:26.898Z,67.82
2018-08-28T03:27:55.495Z,67.65
2018-08-28T03:30:24.477Z,67.48
2018-08-28T03:32:53.780Z,67.61
2018-08-28T03:35:23.042Z,67.53
2018-08-28T03:37:53.585Z,66.91
2018-08-28T03:40:22.327Z,66.35
2018-08-28T03:42:50.924Z,66.45
2018-08-28T03:45:19.703Z,67.05
2018-08-28T03:47:48.405Z,66.87
2018-08-28T03:50:17.051Z,66.90
2018-08-28T03:52:45.658Z,66.68
2018-08-28T03:55:14.347Z,67.16
2018-08-28T03:57:43.023Z,66.67
2018-08-28T04:00:12.235Z,66.79
2018-08-28T04:02:40.948Z,65.97
2018-08-28T04:05:10.228Z,65.83
2018-08-28T04:07:38.970Z,66.03
2018-08-28T04:10:07.663Z,66.01
2018-08-28T04:12:36.387Z,65.63
2018-08-28T04:15:06.239Z,66.06
2018-08-28T04:17:39.277Z,65.56
2018-08-28T04:20:08.220Z,65.40
2018-08-28T04:22:36.958Z,65.19
2018-08-28T04:25:05.896Z,65.46
2018-08-28T04:27:34.597Z,65.43
2018-08-28T04:30:03.392Z,65.00
2018-08-28T04:32:46.751Z,65.27
2018-08-28T04:35:15.220Z,65.25
2018-08-28T04:37:43.661Z,65.15
2018-08-28T04:40:12.150Z,65.40
2018-08-28T04:42:40.605Z,65.56
2018-08-28T04:45:09.156Z,65.33
2018-08-28T04:47:37.667Z,65.34
2018-08-28T04:50:06.518Z,65.03
2018-08-28T04:52:35.078Z,65.44
2018-08-28T04:55:03.701Z,64.68
2018-08-28T04:57:32.058Z,64.87
2018-08-28T05:00:00.488Z,64.51
2018-08-28T05:02:33.124Z,64.32
2018-08-28T05:05:01.630Z,64.24
2018-08-28T05:07:30.281Z,64.11
2018-08-28T05:09:58.708Z,63.90
2018-08-28T05:12:27.161Z,64.02
2018-08-28T05:14:55.568Z,63.95
2018-08-28T05:17:24.175Z,63.67
2018-08-28T05:19:53.012Z,64.11
2018-08-28T05:22:21.757Z,64.16
2018-08-28T05:24:50.356Z,64.31
2018-08-28T05:27:18.929Z,64.42
2018-08-28T05:29:47.495Z,64.23
2018-08-28T05:32:15.954Z,64.31
2018-08-28T05:34:44.581Z,63.99
2018-08-28T05:37:13.264Z,63.79
2018-08-28T05:39:41.830Z,63.91
2018-08-28T05:42:10.377Z,64.14
2018-08-28T05:44:38.776Z,64.12
2018-08-28T05:47:07.331Z,63.85
2018-08-28T05:49:35.914Z,63.66
2018-08-28T05:52:04.290Z,63.76
2018-08-28T05:54:32.710Z,63.82
2018-08-28T05:57:01.150Z,63.72
2018-08-28T05:59:29.517Z,63.52
2018-08-28T06:01:57.982Z,63.60
2018-08-28T06:04:26.378Z,62.88
2018-08-28T06:06:54.872Z,63.16
2018-08-28T06:09:23.427Z,63.23
2018-08-28T06:11:51.857Z,62.65
2018-08-28T06:14:20.403Z,62.88
2018-08-28T06:16:48.951Z,63.04
2018-08-28T06:19:17.521Z,63.23
2018-08-28T06:21:45.937Z,62.38
2018-08-28T06:24:14.368Z,62.77
2018-08-28T06:26:42.893Z,62.62
2018-08-28T06:29:11.510Z,62.74
2018-08-28T06:31:39.928Z,62.32
2018-08-28T06:34:08.419Z,62.88
2018-08-28T06:36:36.904Z,62.04
2018-08-28T06:39:07.515Z,62.80
2018-08-28T06:41:35.940Z,62.49
2018-08-28T06:44:04.359Z,62.87
2018-08-28T06:46:32.858Z,62.90
2018-08-28T06:49:01.296Z,63.19
2018-08-28T06:51:29.820Z,62.81
2018-08-28T06:53:58.325Z,61.95
2018-08-28T06:56:26.726Z,62.43
2018-08-28T06:58:55.245Z,61.93
2018-08-28T07:01:23.710Z,61.95
2018-08-28T07:03:52.113Z,61.85
2018-08-28T07:06:20.586Z,61.66
2018-08-28T07:08:49.128Z,61.45
2018-08-28T07:11:17.597Z,60.98
2018-08-28T07:13:46.296Z,61.41
2018-08-28T07:16:14.741Z,60.83
2018-08-28T07:18:43.217Z,60.24
2018-08-28T07:21:11.618Z,60.76
2018-08-28T07:23:40.080Z,60.77
2018-08-28T07:26:08.504Z,60.49
2018-08-28T07:28:36.993Z,60.98
2018-08-28T07:31:05.394Z,60.61
2018-08-28T07:33:33.816Z,61.05
2018-08-28T07:36:02.214Z,60.75
2018-08-28T07:38:30.776Z,60.23
2018-08-28T07:40:59.351Z,59.72
2018-08-28T07:43:27.838Z,60.32
2018-08-28T07:45:56.420Z,59.47
2018-08-28T07:48:25.022Z,60.07
2018-08-28T07:50:53.592Z,60.15
2018-08-28T07:53:21.958Z,60.11
2018-08-28T07:55:50.454Z,59.38
2018-08-28T07:58:19.118Z,59.69
2018-08-28T08:00:47.838Z,59.91
2018-08-28T08:03:20.361Z,59.27
2018-08-28T08:05:48.960Z,59.84
2018-08-28T08:08:17.522Z,59.33
2018-08-28T08:10:46.010Z,59.30
2018-08-28T08:13:14.441Z,59.46
2018-08-28T08:15:42.904Z,59.33
2018-08-28T08:18:11.326Z,59.47
2018-08-28T08:20:39.976Z,59.45
2018-08-28T08:23:08.522Z,59.52
2018-08-28T08:25:36.958Z,59.68
2018-08-28T08:28:05.476Z,58.91
2018-08-28T08:30:33.962Z,58.95
2018-08-28T08:33:02.456Z,59.24
2018-08-28T08:35:30.972Z,58.84
2018-08-28T08:37:59.503Z,59.44
2018-08-28T08:40:27.938Z,59.16
2018-08-28T08:42:56.390Z,59.21
2018-08-28T08:45:24.830Z,59.04
2018-08-28T08:47:53.353Z,58.23
2018-08-28T08:50:21.960Z,57.10
2018-08-28T08:52:50.690Z,56.98
2018-08-28T08:55:19.163Z,56.65
2018-08-28T08:57:47.743Z,56.28
2018-08-28T09:00:16.272Z,56.24
2018-08-28T09:02:44.860Z,55.48
2018-08-28T09:05:14.250Z,56.26
2018-08-28T09:07:42.961Z,55.07
2018-08-28T09:10:12.446Z,55.11
2018-08-28T09:12:41.021Z,55.66
2018-08-28T09:15:09.469Z,55.53
2018-08-28T09:17:37.891Z,55.73
2018-08-28T09:20:06.372Z,54.59
2018-08-28T09:22:35.124Z,52.97
2018-08-28T09:25:04.325Z,51.33
2018-08-28T09:27:32.826Z,52.70
2018-08-28T09:30:01.422Z,51.74
2018-08-28T09:32:29.977Z,51.65
2018-08-28T09:35:02.852Z,51.01
2018-08-28T09:37:31.247Z,51.47
2018-08-28T09:40:00.152Z,51.06
2018-08-28T09:42:28.605Z,49.83
2018-08-28T09:44:57.494Z,49.57
2018-08-28T09:47:25.955Z,50.38
2018-08-28T09:49:54.855Z,51.13
2018-08-28T09:52:23.317Z,51.24
2018-08-28T09:54:51.990Z,51.51
2018-08-28T10:00:04.226Z,52.20
2018-08-28T10:02:33.330Z,51.15
2018-08-28T10:05:02.570Z,50.18
2018-08-28T10:07:31.085Z,50.12
2018-08-28T10:10:13.255Z,50.13
2018-08-28T10:12:42.048Z,49.49
2018-08-28T10:15:10.698Z,48.94
2018-08-28T10:17:39.855Z,48.55
2018-08-28T10:20:08.420Z,48.92
2018-08-28T10:22:36.974Z,48.72
2018-08-28T10:25:05.581Z,47.59
2018-08-28T10:27:34.201Z,46.65
2018-08-28T10:30:03.052Z,45.74
2018-08-28T10:32:31.736Z,45.37
2018-08-28T10:35:00.554Z,44.17
2018-08-28T10:37:29.868Z,43.63
2018-08-28T10:39:58.380Z,43.34
2018-08-28T10:42:26.795Z,43.10
2018-08-28T10:44:55.582Z,42.65
2018-08-28T10:47:24.284Z,42.07
2018-08-28T10:49:53.066Z,42.14
2018-08-28T10:52:21.536Z,42.88
2018-08-28T10:54:52.268Z,42.52
2018-08-28T10:57:21.711Z,41.93
2018-08-28T10:59:50.791Z,43.84
2018-08-28T11:02:21.159Z,42.29
2018-08-28T11:04:50.660Z,41.04
2018-08-28T11:07:19.581Z,40.15
2018-08-28T11:09:48.329Z,38.81
2018-08-28T11:12:17.335Z,38.82
2018-08-28T11:14:46.220Z,39.37
2018-08-28T11:17:15.245Z,39.94
2018-08-28T11:19:43.743Z,41.88
2018-08-28T11:22:12.318Z,44.81
2018-08-28T11:24:41.123Z,41.37
2018-08-28T11:27:09.835Z,41.95
2018-08-28T11:29:38.478Z,41.58
2018-08-28T11:32:07.190Z,42.65
2018-08-28T11:34:35.749Z,39.09
2018-08-28T11:37:04.496Z,36.70
2018-08-28T11:39:33.309Z,37.91
2018-08-28T11:42:02.247Z,38.92
2018-08-28T11:44:30.988Z,36.70
2018-08-28T11:46:59.845Z,39.27
2018-08-28T11:49:29.709Z,38.99
2018-08-28T11:51:59.769Z,40.72
2018-08-28T11:54:29.586Z,38.43
2018-08-28T11:56:58.410Z,37.11
2018-08-28T11:59:27.080Z,35.49
2018-08-28T12:01:55.782Z,35.77
2018-08-28T12:04:26.119Z,33.85
2018-08-28T12:06:55.458Z,37.75
2018-08-28T12:09:24.642Z,35.00
2018-08-28T12:11:54.422Z,38.56
2018-08-28T12:14:27.513Z,39.30
2018-08-28T12:16:56.183Z,39.15
2018-08-28T12:19:24.746Z,40.65
2018-08-28T12:21:53.125Z,33.92
2018-08-28T12:24:22.424Z,34.76
2018-08-28T12:26:51.060Z,33.68
2018-08-28T12:29:19.400Z,32.52
2018-08-28T12:31:47.856Z,32.08
2018-08-28T12:34:16.350Z,32.60
2018-08-28T12:36:44.875Z,30.85
2018-08-28T12:39:14.112Z,31.26
2018-08-28T12:41:42.668Z,31.28
2018-08-28T12:44:11.431Z,33.52
2018-08-28T12:46:39.690Z,32.12
2018-08-28T12:49:08.315Z,33.99
2018-08-28T12:51:36.800Z,35.84
2018-08-28T12:54:05.382Z,35.98
2018-08-28T12:56:33.917Z,37.06
2018-08-28T12:59:02.401Z,37.88
2018-08-28T13:01:30.928Z,36.35
2018-08-28T13:04:00.293Z,36.86
2018-08-28T13:06:29.289Z,37.77
2018-08-28T13:08:58.063Z,33.57
2018-08-28T13:11:27.150Z,34.24
2018-08-28T13:13:55.713Z,31.65
2018-08-28T13:16:25.235Z,32.30
2018-08-28T13:18:54.664Z,33.05
2018-08-28T13:21:23.229Z,32.57
2018-08-28T13:23:53.383Z,32.61
2018-08-28T13:26:21.884Z,31.94
2018-08-28T13:28:50.413Z,31.29
2018-08-28T13:31:18.890Z,31.12
2018-08-28T13:33:47.259Z,31.18
2018-08-28T13:36:15.747Z,31.78
2018-08-28T13:38:44.186Z,31.27
2018-08-28T13:41:12.643Z,32.43
2018-08-28T13:43:41.187Z,31.60
2018-08-28T13:46:11.049Z,31.27
2018-08-28T13:48:44.575Z,32.58
2018-08-28T13:51:17.537Z,34.47
2018-08-28T13:53:46.475Z,32.37
2018-08-28T13:56:14.913Z,32.21
2018-08-28T13:58:43.617Z,31.95
2018-08-28T14:01:12.037Z,33.87
2018-08-28T14:03:40.441Z,32.47
2018-08-28T14:06:08.878Z,32.11
2018-08-28T14:08:37.557Z,32.21
2018-08-28T14:11:06.126Z,31.96
2018-08-28T14:13:34.637Z,31.62
2018-08-28T14:16:03.053Z,32.82
2018-08-28T14:18:32.137Z,31.33
2018-08-28T14:21:00.604Z,32.41
2018-08-28T14:23:29.085Z,32.51
2018-08-28T14:25:57.608Z,32.82
2018-08-28T14:28:26.177Z,32.86
2018-08-28T14:30:54.907Z,32.48
2018-08-28T14:33:23.378Z,32.73
2018-08-28T14:35:51.882Z,32.98
2018-08-28T14:38:20.629Z,32.99
2018-08-28T14:40:49.150Z,32.97
2018-08-28T14:43:17.541Z,33.13
2018-08-28T14:45:45.969Z,32.82
2018-08-28T14:48:14.526Z,33.69
2018-08-28T14:50:43.155Z,34.47
2018-08-28T14:53:11.941Z,33.52
2018-08-28T14:55:55.145Z,35.92
2018-08-28T14:58:23.629Z,34.00
2018-08-28T15:00:52.105Z,34.61
2018-08-28T15:03:20.580Z,34.11
2018-08-28T15:05:49.219Z,34.89
2018-08-28T15:08:17.608Z,34.50
2018-08-28T15:10:46.006Z,34.84
2018-08-28T15:13:14.964Z,35.20
2018-08-28T15:15:43.460Z,35.68
2018-08-28T15:18:12.086Z,36.04
2018-08-28T15:20:40.616Z,36.23
2018-08-28T15:23:09.305Z,36.11
2018-08-28T15:25:37.807Z,36.21
2018-08-28T15:28:06.475Z,36.17
2018-08-28T15:30:35.089Z,35.82
2018-08-28T15:33:03.713Z,36.91
2018-08-28T15:35:32.215Z,36.53
2018-08-28T15:38:00.756Z,35.85
2018-08-28T15:40:29.243Z,36.58
2018-08-28T15:42:57.834Z,36.83
2018-08-28T15:45:26.349Z,36.68
2018-08-28T15:47:54.803Z,36.94
2018-08-28T15:50:23.420Z,37.94
2018-08-28T15:52:51.967Z,37.17
2018-08-28T15:55:20.436Z,37.58
2018-08-28T15:57:48.963Z,36.81
2018-08-28T16:00:18.497Z,37.84
2018-08-28T16:02:47.331Z,37.88
2018-08-28T16:05:16.122Z,37.94
2018-08-28T16:07:45.419Z,37.71
2018-08-28T16:10:14.193Z,37.29
2018-08-28T16:12:43.213Z,37.77
2018-08-28T16:15:11.712Z,37.36
2018-08-28T16:17:40.213Z,38.25
2018-08-28T16:20:08.851Z,37.69
2018-08-28T16:22:43.247Z,37.89
2018-08-28T16:25:11.753Z,37.12
2018-08-28T16:27:40.589Z,38.17
2018-08-28T16:30:09.377Z,38.44
2018-08-28T16:32:37.840Z,37.29
2018-08-28T16:35:06.631Z,37.81
2018-08-28T16:37:35.178Z,37.14
2018-08-28T16:40:05.415Z,37.82
2018-08-28T16:42:34.259Z,38.41
2018-08-28T16:45:02.951Z,38.62
2018-08-28T16:47:31.797Z,38.12
2018-08-28T16:50:00.449Z,39.12
2018-08-28T16:52:28.965Z,38.11
2018-08-28T16:54:57.790Z,38.94
2018-08-28T16:57:26.631Z,38.62
2018-08-28T16:59:55.585Z,38.22
2018-08-28T17:02:24.263Z,39.03
2018-08-28T17:04:53.710Z,39.52
2018-08-28T17:07:22.962Z,39.76
2018-08-28T17:09:53.399Z,39.88
2018-08-28T17:12:24.868Z,39.83
2018-08-28T17:14:53.841Z,39.28
2018-08-28T17:17:23.648Z,38.94
2018-08-28T17:19:53.407Z,39.33
2018-08-28T17:22:22.139Z,39.81
2018-08-28T17:24:50.925Z,39.36
2018-08-28T17:27:19.775Z,39.02
2018-08-28T17:32:32.426Z,39.72
2018-08-28T17:35:01.115Z,38.98
2018-08-28T17:37:29.954Z,38.88
2018-08-28T17:39:58.407Z,39.12
2018-08-28T17:42:26.956Z,39.00
2018-08-28T17:44:55.388Z,39.29
2018-08-28T17:47:24.523Z,38.92
2018-08-28T17:49:55.764Z,39.02
2018-08-28T17:52:24.176Z,38.89
2018-08-28T17:54:52.780Z,38.32
2018-08-28T17:57:21.718Z,38.78
2018-08-28T17:59:50.257Z,39.28
2018-08-28T18:02:18.823Z,39.16
2018-08-28T18:04:47.398Z,39.14
2018-08-28T18:07:15.901Z,38.80
2018-08-28T18:09:44.889Z,39.58
2018-08-28T18:12:13.486Z,39.23
2018-08-28T18:14:42.000Z,39.29
2018-08-28T18:17:10.734Z,39.30
2018-08-28T18:19:39.443Z,39.61
2018-08-28T18:22:08.010Z,39.61
2018-08-28T18:24:36.586Z,40.08
2018-08-28T18:27:05.632Z,40.21
2018-08-28T18:29:39.357Z,39.56
2018-08-28T18:32:08.469Z,39.55
2018-08-28T18:34:37.317Z,39.70
2018-08-28T18:37:07.845Z,39.39
2018-08-28T18:39:37.079Z,39.78
2018-08-28T18:42:06.181Z,39.60
2018-08-28T18:44:35.912Z,39.55
2018-08-28T18:47:04.831Z,39.75
2018-08-28T18:49:33.666Z,40.16
2018-08-28T18:52:02.284Z,40.31
2018-08-28T18:54:31.248Z,40.34
2018-08-28T18:57:00.527Z,40.76
2018-08-28T18:59:33.229Z,40.44
2018-08-28T19:02:02.196Z,40.59
2018-08-28T19:04:30.830Z,40.53
2018-08-28T19:07:00.141Z,41.16
2018-08-28T19:09:29.621Z,40.36
2018-08-28T19:11:59.205Z,40.13
2018-08-28T19:14:30.231Z,40.88
2018-08-28T19:16:58.978Z,40.53
2018-08-28T19:19:28.158Z,40.55
2018-08-28T19:21:56.968Z,40.58
2018-08-28T19:24:25.808Z,40.41
2018-08-28T19:26:54.525Z,40.86
2018-08-28T19:29:23.203Z,40.73
2018-08-28T19:31:51.990Z,41.52
2018-08-28T19:34:20.531Z,41.75
2018-08-28T19:36:48.956Z,41.51
2018-08-28T19:39:17.879Z,41.56
2018-08-28T19:41:46.685Z,41.82
2018-08-28T19:44:15.427Z,41.52
2018-08-28T19:46:44.140Z,41.32
2018-08-28T19:49:13.033Z,41.78
2018-08-28T19:51:41.762Z,41.55
2018-08-28T19:54:10.348Z,42.03
2018-08-28T19:56:39.032Z,41.52
2018-08-28T19:59:07.592Z,42.21
2018-08-28T20:01:36.511Z,42.60
2018-08-28T20:04:05.379Z,42.24
2018-08-28T20:06:33.787Z,42.26
2018-08-28T20:09:02.349Z,42.56
2018-08-28T20:11:31.282Z,42.34
2018-08-28T20:13:59.829Z,42.78
2018-08-28T20:16:28.402Z,42.64
2018-08-28T20:18:56.935Z,42.37
2018-08-28T20:21:25.657Z,42.59
2018-08-28T20:23:54.185Z,43.21
2018-08-28T20:26:23.104Z,42.74
2018-08-28T20:28:52.337Z,43.39
2018-08-28T20:31:21.182Z,42.90
2018-08-28T20:33:49.718Z,43.11
2018-08-28T20:36:18.121Z,42.87
2018-08-28T20:38:46.784Z,42.68
2018-08-28T20:41:15.343Z,42.56
2018-08-28T20:43:43.912Z,43.35
2018-08-28T20:46:12.349Z,42.89
2018-08-28T20:48:40.912Z,42.85
2018-08-28T20:51:09.355Z,43.41
2018-08-28T20:53:37.867Z,43.44
2018-08-28T20:56:06.432Z,43.62
2018-08-28T20:58:35.247Z,43.67
2018-08-28T21:01:03.691Z,43.50
2018-08-28T21:03:32.190Z,43.84
2018-08-28T21:06:00.623Z,44.30
2018-08-28T21:08:29.901Z,43.68
2018-08-28T21:10:58.352Z,43.49
2018-08-28T21:13:26.899Z,43.82
2018-08-28T21:15:55.489Z,43.80
2018-08-28T21:18:24.275Z,44.18
2018-08-28T21:20:52.860Z,44.41
2018-08-28T21:23:21.376Z,44.47
2018-08-28T21:25:49.818Z,45.01
2018-08-28T21:28:18.287Z,45.04
2018-08-28T21:30:46.708Z,44.76
2018-08-28T21:33:15.144Z,45.13
2018-08-28T21:35:43.611Z,45.36
2018-08-28T21:38:12.177Z,45.15
2018-08-28T21:40:40.658Z,45.35
2018-08-28T21:43:09.152Z,45.21
2018-08-28T21:45:37.540Z,44.99
2018-08-28T21:48:06.171Z,45.52
2018-08-28T21:50:34.604Z,45.58
2018-08-28T21:53:03.110Z,45.05
2018-08-28T21:55:31.513Z,45.08
2018-08-28T21:58:00.535Z,44.98
2018-08-28T22:00:29.128Z,45.47
2018-08-28T22:02:57.702Z,45.35
2018-08-28T22:05:31.043Z,45.69
2018-08-28T22:08:03.008Z,45.39
2018-08-28T22:10:32.105Z,45.33
2018-08-28T22:13:00.626Z,45.50
2018-08-28T22:15:29.167Z,45.88
2018-08-28T22:17:57.712Z,45.99
2018-08-28T22:20:26.230Z,45.74
2018-08-28T22:22:54.676Z,46.11
2018-08-28T22:25:23.185Z,45.88
2018-08-28T22:27:51.576Z,46.16
2018-08-28T22:30:20.263Z,46.25
2018-08-28T22:32:48.758Z,45.93
2018-08-28T22:35:17.252Z,45.91
2018-08-28T22:37:46.067Z,46.33
2018-08-28T22:40:14.514Z,46.10
2018-08-28T22:42:42.990Z,45.93
2018-08-28T22:45:11.505Z,46.32
2018-08-28T22:47:39.958Z,46.40
2018-08-28T22:50:08.542Z,45.94
2018-08-28T22:52:38.578Z,45.80
2018-08-28T22:55:07.219Z,46.71
2018-08-28T22:57:36.486Z,46.40
2018-08-28T23:00:06.869Z,45.75
2018-08-28T23:02:35.512Z,46.74
2018-08-28T23:05:04.148Z,46.69
2018-08-28T23:07:32.944Z,46.90
2018-08-28T23:10:01.617Z,46.98
2018-08-28T23:12:30.370Z,46.99
2018-08-28T23:14:58.998Z,46.84
2018-08-28T23:17:27.599Z,47.26
2018-08-28T23:19:56.437Z,47.21
2018-08-28T23:22:25.125Z,46.97
2018-08-28T23:24:53.804Z,47.12
2018-08-28T23:27:23.088Z,47.32
2018-08-28T23:29:52.073Z,47.13
2018-08-28T23:32:20.722Z,47.20
2018-08-28T23:34:49.372Z,47.67
2018-08-28T23:37:18.012Z,47.59
2018-08-28T23:39:46.797Z,48.88
2018-08-28T23:42:15.370Z,49.16
2018-08-28T23:44:44.058Z,49.39
2018-08-28T23:47:12.782Z,49.31
2018-08-28T23:49:41.464Z,49.25
2018-08-28T23:52:10.219Z,49.08
2018-08-28T23:54:38.868Z,48.90
2018-08-28T23:57:07.561Z,49.50
2018-08-28T23:59:36.268Z,49.39
